<?xml version='1.0' encoding='UTF-8'?><gpx version="1.1" creator="JPX - https://github.com/jenetics/jpx" xmlns="http://www.topografix.com/GPX/1/1"><trk><trkseg><trkpt lat="45.83397893358546" lon="13.216233175354727"><ele>5.0</ele><time>2026-05-02T19:06:12.987Z</time></trkpt><trkpt lat="45.83389708583672" lon="13.216211460280824"><ele>5.0</ele><time>2026-05-02T19:06:39.987Z</time></trkpt><trkpt lat="45.83381941270398" lon="13.216173522257387"><ele>5.0</ele><time>2026-05-02T19:06:43.987Z</time></trkpt><trkpt lat="45.83375636761066" lon="13.216096060326306"><ele>5.0</ele><time>2026-05-02T19:06:47.987Z</time></trkpt><trkpt lat="45.83375691101833" lon="13.215992786967462"><ele>5.0</ele><time>2026-05-02T19:06:49.987Z</time></trkpt><trkpt lat="45.8337321333163" lon="13.21586947868896"><ele>5.0</ele><time>2026-05-02T19:06:51.987Z</time></trkpt><trkpt lat="45.83372920360746" lon="13.215767283068308"><ele>4.833333333333334</ele><time>2026-05-02T19:06:53.987Z</time></trkpt><trkpt lat="45.83370908207615" lon="13.21565092574168"><ele>4.666666666666667</ele><time>2026-05-02T19:06:55.987Z</time></trkpt><trkpt lat="45.83368783276261" lon="13.215543670864273"><ele>4.5</ele><time>2026-05-02T19:06:58.988Z</time></trkpt><trkpt lat="45.83377602190072" lon="13.215498838688518"><ele>4.333333333333333</ele><time>2026-05-02T19:07:00.989Z</time></trkpt><trkpt lat="45.83383360952064" lon="13.215426739687468"><ele>4.166666666666666</ele><time>2026-05-02T19:07:02.991Z</time></trkpt><trkpt lat="45.833861234992774" lon="13.215334029403753"><ele>4.0</ele><time>2026-05-02T19:07:04.992Z</time></trkpt><trkpt lat="45.83384241499808" lon="13.215245459460787"><ele>3.9999999999999996</ele><time>2026-05-02T19:07:06.993Z</time></trkpt><trkpt lat="45.83378767778449" lon="13.215157434984308"><ele>4.0</ele><time>2026-05-02T19:07:09.995Z</time></trkpt><trkpt lat="45.83384760150794" lon="13.215238106540978"><ele>4.0</ele><time>2026-05-02T19:07:18.997Z</time></trkpt><trkpt lat="45.83385150258084" lon="13.215340444014616"><ele>4.0</ele><time>2026-05-02T19:07:20.998Z</time></trkpt><trkpt lat="45.83385482286271" lon="13.215438772348733"><ele>3.9999999999999996</ele><time>2026-05-02T19:07:22.998Z</time></trkpt><trkpt lat="45.833804736352" lon="13.215522859171958"><ele>4.0</ele><time>2026-05-02T19:07:24.998Z</time></trkpt><trkpt lat="45.833719076564314" lon="13.215548770514333"><ele>3.9999999999999996</ele><time>2026-05-02T19:07:26.999Z</time></trkpt><trkpt lat="45.83364583986259" lon="13.215586402969995"><ele>4.0</ele><time>2026-05-02T19:07:28.999Z</time></trkpt><trkpt lat="45.83356334012169" lon="13.215628942292547"><ele>4.0</ele><time>2026-05-02T19:07:30.999Z</time></trkpt><trkpt lat="45.833483029765524" lon="13.21562955515611"><ele>4.0</ele><time>2026-05-02T19:07:32.999Z</time></trkpt><trkpt lat="45.83342817142833" lon="13.215535900149831"><ele>3.9999999999999996</ele><time>2026-05-02T19:07:34.999Z</time></trkpt><trkpt lat="45.83338934468003" lon="13.215429144564123"><ele>4.0</ele><time>2026-05-02T19:07:36.999Z</time></trkpt><trkpt lat="45.83333296346337" lon="13.215334664210276"><ele>4.166666666666666</ele><time>2026-05-02T19:07:39Z</time></trkpt><trkpt lat="45.83326788508947" lon="13.215256167859222"><ele>4.333333333333333</ele><time>2026-05-02T19:07:41Z</time></trkpt><trkpt lat="45.83323069311802" lon="13.215149540887163"><ele>4.5</ele><time>2026-05-02T19:07:43Z</time></trkpt><trkpt lat="45.83319932526549" lon="13.215036272065044"><ele>4.666666666666667</ele><time>2026-05-02T19:07:45Z</time></trkpt><trkpt lat="45.83316076395581" lon="13.21492146370039"><ele>4.833333333333334</ele><time>2026-05-02T19:07:47Z</time></trkpt><trkpt lat="45.83311803634009" lon="13.214810321254625"><ele>5.0</ele><time>2026-05-02T19:07:49Z</time></trkpt><trkpt lat="45.833080028042986" lon="13.214696525498267"><ele>5.0</ele><time>2026-05-02T19:07:51Z</time></trkpt><trkpt lat="45.833018948181774" lon="13.214585186173682"><ele>5.0</ele><time>2026-05-02T19:07:53Z</time></trkpt><trkpt lat="45.83294166005439" lon="13.214487112305145"><ele>5.0</ele><time>2026-05-02T19:07:55Z</time></trkpt><trkpt lat="45.832869128900654" lon="13.214385312634839"><ele>5.0</ele><time>2026-05-02T19:07:57Z</time></trkpt><trkpt lat="45.832797938722805" lon="13.214280259544282"><ele>5.0</ele><time>2026-05-02T19:07:59Z</time></trkpt><trkpt lat="45.83272026711606" lon="13.214238942809356"><ele>5.0</ele><time>2026-05-02T19:08:01Z</time></trkpt><trkpt lat="45.832676125092455" lon="13.214155822259016"><ele>5.0</ele><time>2026-05-02T19:08:02Z</time></trkpt><trkpt lat="45.83260973362052" lon="13.214058782809593"><ele>5.0</ele><time>2026-05-02T19:08:04Z</time></trkpt><trkpt lat="45.832552425496594" lon="13.21395493488051"><ele>5.0</ele><time>2026-05-02T19:08:06Z</time></trkpt><trkpt lat="45.83248318685864" lon="13.213846785772342"><ele>5.0</ele><time>2026-05-02T19:08:08Z</time></trkpt><trkpt lat="45.83242557531299" lon="13.21372358152016"><ele>5.0</ele><time>2026-05-02T19:08:10Z</time></trkpt><trkpt lat="45.83237808205702" lon="13.213566098867279"><ele>5.0</ele><time>2026-05-02T19:08:12Z</time></trkpt><trkpt lat="45.832332414652754" lon="13.213412146576138"><ele>5.0</ele><time>2026-05-02T19:08:14Z</time></trkpt><trkpt lat="45.8322800651333" lon="13.213263523437503"><ele>5.0</ele><time>2026-05-02T19:08:16Z</time></trkpt><trkpt lat="45.832227175291315" lon="13.213110522654826"><ele>5.0</ele><time>2026-05-02T19:08:18Z</time></trkpt><trkpt lat="45.83218009253323" lon="13.212947898242806"><ele>5.0</ele><time>2026-05-02T19:08:20Z</time></trkpt><trkpt lat="45.83213942970543" lon="13.21279152974958"><ele>5.0</ele><time>2026-05-02T19:08:22Z</time></trkpt><trkpt lat="45.83210022431507" lon="13.212639022648482"><ele>5.0</ele><time>2026-05-02T19:08:24Z</time></trkpt><trkpt lat="45.83205132379482" lon="13.212479868050822"><ele>5.0</ele><time>2026-05-02T19:08:26Z</time></trkpt><trkpt lat="45.83199959367039" lon="13.212324587469343"><ele>5.0</ele><time>2026-05-02T19:08:28Z</time></trkpt><trkpt lat="45.83194882743085" lon="13.212177901448149"><ele>5.0</ele><time>2026-05-02T19:08:30Z</time></trkpt><trkpt lat="45.83189166076546" lon="13.212049929396516"><ele>5.0</ele><time>2026-05-02T19:08:32Z</time></trkpt><trkpt lat="45.831822692182826" lon="13.21194997316924"><ele>5.0</ele><time>2026-05-02T19:08:34Z</time></trkpt><trkpt lat="45.831759256063" lon="13.211889420013378"><ele>5.5</ele><time>2026-05-02T19:08:36Z</time></trkpt><trkpt lat="45.831604409938166" lon="13.212067375123373"><ele>6.0</ele><time>2026-05-02T19:08:37Z</time></trkpt><trkpt lat="45.83149735840875" lon="13.212123230485792"><ele>6.5</ele><time>2026-05-02T19:08:39Z</time></trkpt><trkpt lat="45.83138942175037" lon="13.212201919306208"><ele>7.0</ele><time>2026-05-02T19:08:41Z</time></trkpt><trkpt lat="45.83129387905619" lon="13.212284577631248"><ele>7.000000000000001</ele><time>2026-05-02T19:08:43Z</time></trkpt><trkpt lat="45.83117428447054" lon="13.212293670256239"><ele>7.0</ele><time>2026-05-02T19:08:45Z</time></trkpt><trkpt lat="45.83111263986344" lon="13.21231513835155"><ele>7.0</ele><time>2026-05-02T19:08:46Z</time></trkpt><trkpt lat="45.831045373151916" lon="13.212313596844755"><ele>7.0</ele><time>2026-05-02T19:08:47Z</time></trkpt><trkpt lat="45.830919977674455" lon="13.212341366133602"><ele>7.000000000000001</ele><time>2026-05-02T19:08:49Z</time></trkpt><trkpt lat="45.830857317019934" lon="13.212353206099497"><ele>7.0</ele><time>2026-05-02T19:08:50Z</time></trkpt><trkpt lat="45.830730653271466" lon="13.212370504767197"><ele>6.8</ele><time>2026-05-02T19:08:52Z</time></trkpt><trkpt lat="45.83066812125168" lon="13.212382898952264"><ele>6.6</ele><time>2026-05-02T19:08:53Z</time></trkpt><trkpt lat="45.83060441905698" lon="13.21239688282584"><ele>6.3999999999999995</ele><time>2026-05-02T19:08:54Z</time></trkpt><trkpt lat="45.830490538434546" lon="13.212391054988892"><ele>6.199999999999999</ele><time>2026-05-02T19:08:56Z</time></trkpt><trkpt lat="45.83036833017538" lon="13.212386393457415"><ele>6.0</ele><time>2026-05-02T19:08:58Z</time></trkpt><trkpt lat="45.83025115307846" lon="13.21236282399101"><ele>6.0</ele><time>2026-05-02T19:09:00Z</time></trkpt><trkpt lat="45.83013891596638" lon="13.212339018437289"><ele>6.0</ele><time>2026-05-02T19:09:02Z</time></trkpt><trkpt lat="45.83001586221121" lon="13.212331941515028"><ele>6.0</ele><time>2026-05-02T19:09:04.001Z</time></trkpt><trkpt lat="45.829892413263735" lon="13.212318846238444"><ele>6.0</ele><time>2026-05-02T19:09:06.001Z</time></trkpt><trkpt lat="45.82977304802494" lon="13.212282371844962"><ele>6.0</ele><time>2026-05-02T19:09:08.001Z</time></trkpt><trkpt lat="45.82965368486928" lon="13.212257521654545"><ele>6.0</ele><time>2026-05-02T19:09:10.001Z</time></trkpt><trkpt lat="45.829540506665154" lon="13.212218684351544"><ele>6.0</ele><time>2026-05-02T19:09:12.001Z</time></trkpt><trkpt lat="45.82943151933709" lon="13.212173298230807"><ele>6.0</ele><time>2026-05-02T19:09:14.001Z</time></trkpt><trkpt lat="45.82936366617207" lon="13.212074778570996"><ele>6.0</ele><time>2026-05-02T19:09:16.001Z</time></trkpt><trkpt lat="45.82938082721479" lon="13.211928637985396"><ele>6.0</ele><time>2026-05-02T19:09:18.001Z</time></trkpt><trkpt lat="45.82938689833629" lon="13.211797811122642"><ele>6.0</ele><time>2026-05-02T19:09:20.001Z</time></trkpt><trkpt lat="45.82939758737744" lon="13.211691209427345"><ele>6.0</ele><time>2026-05-02T19:09:22.001Z</time></trkpt><trkpt lat="45.82938491004696" lon="13.211796850350419"><ele>6.0</ele><time>2026-05-02T19:09:26.001Z</time></trkpt><trkpt lat="45.82937090757658" lon="13.211940219752629"><ele>6.0</ele><time>2026-05-02T19:09:28.001Z</time></trkpt><trkpt lat="45.829269547365165" lon="13.212082804075514"><ele>6.0</ele><time>2026-05-02T19:09:30Z</time></trkpt><trkpt lat="45.82920207486105" lon="13.212045462340173"><ele>6.0</ele><time>2026-05-02T19:09:31Z</time></trkpt><trkpt lat="45.82912056528435" lon="13.212048453257877"><ele>6.0</ele><time>2026-05-02T19:09:33Z</time></trkpt><trkpt lat="45.829044719998926" lon="13.212039911020293"><ele>6.0</ele><time>2026-05-02T19:09:35Z</time></trkpt><trkpt lat="45.82891752377324" lon="13.21198460841846"><ele>6.0</ele><time>2026-05-02T19:09:37Z</time></trkpt><trkpt lat="45.82883088682751" lon="13.211928903983607"><ele>6.0</ele><time>2026-05-02T19:09:39Z</time></trkpt><trkpt lat="45.828741035895135" lon="13.211873616499552"><ele>6.0</ele><time>2026-05-02T19:09:41Z</time></trkpt><trkpt lat="45.82866632232813" lon="13.211831097242179"><ele>6.0</ele><time>2026-05-02T19:09:43Z</time></trkpt><trkpt lat="45.82858911557002" lon="13.211798617084344"><ele>6.0</ele><time>2026-05-02T19:09:45Z</time></trkpt><trkpt lat="45.82849626823119" lon="13.211784045826386"><ele>6.0</ele><time>2026-05-02T19:09:47Z</time></trkpt><trkpt lat="45.82841375486048" lon="13.211762383737858"><ele>6.0</ele><time>2026-05-02T19:09:49Z</time></trkpt><trkpt lat="45.828315291585206" lon="13.211746052128438"><ele>5.8</ele><time>2026-05-02T19:09:51Z</time></trkpt><trkpt lat="45.82820714210916" lon="13.211739291899963"><ele>5.6</ele><time>2026-05-02T19:09:53Z</time></trkpt><trkpt lat="45.828090904864716" lon="13.21175624196295"><ele>5.4</ele><time>2026-05-02T19:09:55Z</time></trkpt><trkpt lat="45.827983957314515" lon="13.211791008499096"><ele>5.2</ele><time>2026-05-02T19:09:57Z</time></trkpt><trkpt lat="45.82788255775094" lon="13.211836000437138"><ele>5.0</ele><time>2026-05-02T19:09:59Z</time></trkpt><trkpt lat="45.82778060972078" lon="13.211879721080788"><ele>5.0</ele><time>2026-05-02T19:10:01Z</time></trkpt><trkpt lat="45.82767922496153" lon="13.211928204595983"><ele>5.0</ele><time>2026-05-02T19:10:03Z</time></trkpt><trkpt lat="45.82756716371216" lon="13.2119882195138"><ele>5.0</ele><time>2026-05-02T19:10:05Z</time></trkpt><trkpt lat="45.82746014493302" lon="13.212047802079258"><ele>5.0</ele><time>2026-05-02T19:10:07Z</time></trkpt><trkpt lat="45.82735198072728" lon="13.212107142426635"><ele>4.75</ele><time>2026-05-02T19:10:09Z</time></trkpt><trkpt lat="45.827244652239" lon="13.212158123169313"><ele>4.5</ele><time>2026-05-02T19:10:11Z</time></trkpt><trkpt lat="45.82713491014127" lon="13.21221557824398"><ele>4.25</ele><time>2026-05-02T19:10:13Z</time></trkpt><trkpt lat="45.82703038624026" lon="13.212275764649592"><ele>4.0</ele><time>2026-05-02T19:10:15Z</time></trkpt><trkpt lat="45.82692404469194" lon="13.212337577129828"><ele>4.5</ele><time>2026-05-02T19:10:17Z</time></trkpt><trkpt lat="45.82681913053198" lon="13.212404966099514"><ele>5.0</ele><time>2026-05-02T19:10:19Z</time></trkpt><trkpt lat="45.8267184373277" lon="13.212482116914439"><ele>5.5</ele><time>2026-05-02T19:10:21Z</time></trkpt><trkpt lat="45.8266139752399" lon="13.212565618894127"><ele>6.0</ele><time>2026-05-02T19:10:23Z</time></trkpt><trkpt lat="45.82650975807145" lon="13.212648728196166"><ele>6.0</ele><time>2026-05-02T19:10:25Z</time></trkpt><trkpt lat="45.82640395496327" lon="13.212734115826102"><ele>6.0</ele><time>2026-05-02T19:10:27Z</time></trkpt><trkpt lat="45.826297202689894" lon="13.212812823628198"><ele>6.0</ele><time>2026-05-02T19:10:29Z</time></trkpt><trkpt lat="45.826185325740475" lon="13.21288561266717"><ele>6.0</ele><time>2026-05-02T19:10:31Z</time></trkpt><trkpt lat="45.8260793370394" lon="13.212948963938171"><ele>5.5</ele><time>2026-05-02T19:10:33Z</time></trkpt><trkpt lat="45.825959483032356" lon="13.212999183733121"><ele>5.0</ele><time>2026-05-02T19:10:35Z</time></trkpt><trkpt lat="45.82584270512422" lon="13.21303787164005"><ele>4.5</ele><time>2026-05-02T19:10:37Z</time></trkpt><trkpt lat="45.825730877666146" lon="13.213088484365331"><ele>4.0</ele><time>2026-05-02T19:10:39Z</time></trkpt><trkpt lat="45.825609737593574" lon="13.213128896900168"><ele>4.2</ele><time>2026-05-02T19:10:41Z</time></trkpt><trkpt lat="45.82548864994268" lon="13.213164365488728"><ele>4.4</ele><time>2026-05-02T19:10:43Z</time></trkpt><trkpt lat="45.82542647778416" lon="13.213181013535413"><ele>4.6</ele><time>2026-05-02T19:10:44Z</time></trkpt><trkpt lat="45.82531086640858" lon="13.213212751892044"><ele>4.8</ele><time>2026-05-02T19:10:46Z</time></trkpt><trkpt lat="45.825193331808315" lon="13.213243568505995"><ele>5.0</ele><time>2026-05-02T19:10:48Z</time></trkpt><trkpt lat="45.82507552902926" lon="13.21327371371351"><ele>4.5</ele><time>2026-05-02T19:10:50Z</time></trkpt><trkpt lat="45.82495374769635" lon="13.213307751955389"><ele>4.0</ele><time>2026-05-02T19:10:52Z</time></trkpt><trkpt lat="45.82483313806443" lon="13.213341239855744"><ele>3.5</ele><time>2026-05-02T19:10:54Z</time></trkpt><trkpt lat="45.82471086160879" lon="13.21337454802594"><ele>3.0</ele><time>2026-05-02T19:10:56Z</time></trkpt><trkpt lat="45.82459248021538" lon="13.213410953997066"><ele>3.0</ele><time>2026-05-02T19:10:58Z</time></trkpt><trkpt lat="45.82447632011763" lon="13.213444889946176"><ele>3.0</ele><time>2026-05-02T19:11:00Z</time></trkpt><trkpt lat="45.82436016299974" lon="13.21348102542558"><ele>3.0</ele><time>2026-05-02T19:11:02Z</time></trkpt><trkpt lat="45.82424549696876" lon="13.213503254751723"><ele>3.0</ele><time>2026-05-02T19:11:04Z</time></trkpt><trkpt lat="45.82413030477306" lon="13.213534077079288"><ele>2.75</ele><time>2026-05-02T19:11:06Z</time></trkpt><trkpt lat="45.82401397407582" lon="13.213560888819666"><ele>2.5</ele><time>2026-05-02T19:11:08.001Z</time></trkpt><trkpt lat="45.823904529878185" lon="13.213590354815468"><ele>2.25</ele><time>2026-05-02T19:11:10.001Z</time></trkpt><trkpt lat="45.823786829274965" lon="13.213629341709785"><ele>2.0</ele><time>2026-05-02T19:11:12.001Z</time></trkpt><trkpt lat="45.82367949893294" lon="13.213653692085403"><ele>2.0</ele><time>2026-05-02T19:11:14.001Z</time></trkpt><trkpt lat="45.82356603836291" lon="13.213694601870136"><ele>2.0</ele><time>2026-05-02T19:11:16.001Z</time></trkpt><trkpt lat="45.823452733779185" lon="13.213717259689096"><ele>2.0</ele><time>2026-05-02T19:11:18.001Z</time></trkpt><trkpt lat="45.823332759228144" lon="13.213742365156197"><ele>2.0</ele><time>2026-05-02T19:11:20.001Z</time></trkpt><trkpt lat="45.82321528907966" lon="13.213771211460038"><ele>2.0</ele><time>2026-05-02T19:11:22.001Z</time></trkpt><trkpt lat="45.82310511537696" lon="13.213800717930663"><ele>2.0</ele><time>2026-05-02T19:11:24.001Z</time></trkpt><trkpt lat="45.82299183186482" lon="13.213831007342419"><ele>2.0</ele><time>2026-05-02T19:11:26.001Z</time></trkpt><trkpt lat="45.82288488457652" lon="13.213866384774178"><ele>2.0</ele><time>2026-05-02T19:11:28.001Z</time></trkpt><trkpt lat="45.82278129058693" lon="13.213906912905442"><ele>2.0</ele><time>2026-05-02T19:11:30Z</time></trkpt><trkpt lat="45.82271809851954" lon="13.213739719418816"><ele>2.0</ele><time>2026-05-02T19:11:33Z</time></trkpt><trkpt lat="45.82267554851481" lon="13.213610677124597"><ele>2.0</ele><time>2026-05-02T19:11:35Z</time></trkpt><trkpt lat="45.82264096072815" lon="13.213454173874435"><ele>2.0</ele><time>2026-05-02T19:11:37Z</time></trkpt><trkpt lat="45.82259864181837" lon="13.21329722738749"><ele>2.0</ele><time>2026-05-02T19:11:39Z</time></trkpt><trkpt lat="45.82255860395456" lon="13.213147844999993"><ele>2.0</ele><time>2026-05-02T19:11:41Z</time></trkpt><trkpt lat="45.82251567537593" lon="13.21299254824069"><ele>2.25</ele><time>2026-05-02T19:11:43Z</time></trkpt><trkpt lat="45.82247951174805" lon="13.212834452741584"><ele>2.5</ele><time>2026-05-02T19:11:45Z</time></trkpt><trkpt lat="45.822435502993294" lon="13.212683627017853"><ele>2.75</ele><time>2026-05-02T19:11:47Z</time></trkpt><trkpt lat="45.822399754541614" lon="13.21252923756977"><ele>3.0</ele><time>2026-05-02T19:11:49Z</time></trkpt><trkpt lat="45.822364130379285" lon="13.212377025945207"><ele>3.25</ele><time>2026-05-02T19:11:51Z</time></trkpt><trkpt lat="45.822337884368366" lon="13.21223234655556"><ele>3.5</ele><time>2026-05-02T19:11:53Z</time></trkpt><trkpt lat="45.82218274463946" lon="13.212283399006555"><ele>3.75</ele><time>2026-05-02T19:11:55Z</time></trkpt><trkpt lat="45.82207194363093" lon="13.212248480878594"><ele>4.0</ele><time>2026-05-02T19:11:57Z</time></trkpt><trkpt lat="45.82195443991184" lon="13.212218361063762"><ele>4.0</ele><time>2026-05-02T19:11:59Z</time></trkpt><trkpt lat="45.82183980885037" lon="13.212191856044166"><ele>4.0</ele><time>2026-05-02T19:12:01Z</time></trkpt><trkpt lat="45.82172660672553" lon="13.212165681423736"><ele>4.0</ele><time>2026-05-02T19:12:03Z</time></trkpt><trkpt lat="45.821614500492686" lon="13.212137507038529"><ele>4.0</ele><time>2026-05-02T19:12:05Z</time></trkpt><trkpt lat="45.82150509196537" lon="13.21210949149481"><ele>3.8000000000000003</ele><time>2026-05-02T19:12:07Z</time></trkpt><trkpt lat="45.82139216070308" lon="13.212082805555415"><ele>3.6000000000000005</ele><time>2026-05-02T19:12:09Z</time></trkpt><trkpt lat="45.82127549009069" lon="13.212057166133881"><ele>3.4</ele><time>2026-05-02T19:12:11Z</time></trkpt><trkpt lat="45.8211572848408" lon="13.212029304072768"><ele>3.2</ele><time>2026-05-02T19:12:13Z</time></trkpt><trkpt lat="45.821094824739575" lon="13.212013522446112"><ele>3.0</ele><time>2026-05-02T19:12:14Z</time></trkpt><trkpt lat="45.820976724369494" lon="13.211970136564869"><ele>2.75</ele><time>2026-05-02T19:12:16Z</time></trkpt><trkpt lat="45.82088308441382" lon="13.211867572745646"><ele>2.5</ele><time>2026-05-02T19:12:18Z</time></trkpt><trkpt lat="45.82079405662059" lon="13.211744459555828"><ele>2.25</ele><time>2026-05-02T19:12:20Z</time></trkpt><trkpt lat="45.820683998268414" lon="13.211672427268017"><ele>2.0</ele><time>2026-05-02T19:12:22Z</time></trkpt><trkpt lat="45.82057102624028" lon="13.211607707663147"><ele>2.0</ele><time>2026-05-02T19:12:24Z</time></trkpt><trkpt lat="45.820451319516756" lon="13.211559498681792"><ele>2.0</ele><time>2026-05-02T19:12:26Z</time></trkpt><trkpt lat="45.820337065049486" lon="13.211505693389174"><ele>2.0</ele><time>2026-05-02T19:12:28Z</time></trkpt><trkpt lat="45.82021823216464" lon="13.211481080744251"><ele>2.0</ele><time>2026-05-02T19:12:30Z</time></trkpt><trkpt lat="45.82009686600375" lon="13.211456963109958"><ele>1.8</ele><time>2026-05-02T19:12:32Z</time></trkpt><trkpt lat="45.819980213152576" lon="13.211437424021002"><ele>1.6</ele><time>2026-05-02T19:12:34Z</time></trkpt><trkpt lat="45.81991591358362" lon="13.211428416141864"><ele>1.4000000000000001</ele><time>2026-05-02T19:12:35Z</time></trkpt><trkpt lat="45.81979365970845" lon="13.211414217016772"><ele>1.2000000000000002</ele><time>2026-05-02T19:12:37Z</time></trkpt><trkpt lat="45.81968108736724" lon="13.211402620177438"><ele>1.0</ele><time>2026-05-02T19:12:39Z</time></trkpt><trkpt lat="45.819564210298445" lon="13.211417542035264"><ele>1.0</ele><time>2026-05-02T19:12:41Z</time></trkpt><trkpt lat="45.81945829445399" lon="13.21142945536857"><ele>1.0</ele><time>2026-05-02T19:12:43Z</time></trkpt><trkpt lat="45.819352548093924" lon="13.211472805335024"><ele>1.0</ele><time>2026-05-02T19:12:45Z</time></trkpt><trkpt lat="45.81925182330514" lon="13.21150931370359"><ele>1.0</ele><time>2026-05-02T19:12:47Z</time></trkpt><trkpt lat="45.819159293449644" lon="13.211579609877505"><ele>1.0</ele><time>2026-05-02T19:12:49Z</time></trkpt><trkpt lat="45.81906543476926" lon="13.211628305478081"><ele>1.6</ele><time>2026-05-02T19:12:51Z</time></trkpt><trkpt lat="45.81897258533135" lon="13.211676091867924"><ele>2.2</ele><time>2026-05-02T19:12:53Z</time></trkpt><trkpt lat="45.81887880680755" lon="13.211732026092205"><ele>2.8000000000000003</ele><time>2026-05-02T19:12:55Z</time></trkpt><trkpt lat="45.81878155289754" lon="13.211763826909568"><ele>3.4000000000000004</ele><time>2026-05-02T19:12:57Z</time></trkpt><trkpt lat="45.81869910807597" lon="13.211824399085273"><ele>4.0</ele><time>2026-05-02T19:12:59Z</time></trkpt><trkpt lat="45.81861218325415" lon="13.211869488713738"><ele>4.0</ele><time>2026-05-02T19:13:01Z</time></trkpt><trkpt lat="45.81852500125133" lon="13.21192536587266"><ele>4.0</ele><time>2026-05-02T19:13:03Z</time></trkpt><trkpt lat="45.81843610471178" lon="13.21197113375085"><ele>4.0</ele><time>2026-05-02T19:13:05Z</time></trkpt><trkpt lat="45.81835166027043" lon="13.212031136543668"><ele>4.0</ele><time>2026-05-02T19:13:06.999Z</time></trkpt><trkpt lat="45.81825541764683" lon="13.21208726925915"><ele>4.0</ele><time>2026-05-02T19:13:08.999Z</time></trkpt><trkpt lat="45.81815778545412" lon="13.212165976136902"><ele>3.5</ele><time>2026-05-02T19:13:10.999Z</time></trkpt><trkpt lat="45.81805625083493" lon="13.212243566773495"><ele>3.0</ele><time>2026-05-02T19:13:12.999Z</time></trkpt><trkpt lat="45.817950787392476" lon="13.212318387293937"><ele>2.5</ele><time>2026-05-02T19:13:15.001Z</time></trkpt><trkpt lat="45.81784311969114" lon="13.212402575043916"><ele>2.0</ele><time>2026-05-02T19:13:17.001Z</time></trkpt><trkpt lat="45.817738631272135" lon="13.212486297971758"><ele>1.75</ele><time>2026-05-02T19:13:19.001Z</time></trkpt><trkpt lat="45.81763414393125" lon="13.212559982986926"><ele>1.5</ele><time>2026-05-02T19:13:21.001Z</time></trkpt><trkpt lat="45.81752475857743" lon="13.212623235397974"><ele>1.25</ele><time>2026-05-02T19:13:23.001Z</time></trkpt><trkpt lat="45.81740971735454" lon="13.212644476890347"><ele>1.0</ele><time>2026-05-02T19:13:25.001Z</time></trkpt><trkpt lat="45.81729362478341" lon="13.212675543563"><ele>1.0</ele><time>2026-05-02T19:13:27.001Z</time></trkpt><trkpt lat="45.81718346474439" lon="13.212723679724409"><ele>1.0</ele><time>2026-05-02T19:13:29.001Z</time></trkpt><trkpt lat="45.81706316861454" lon="13.21275165984613"><ele>1.0</ele><time>2026-05-02T19:13:31.001Z</time></trkpt><trkpt lat="45.81694541774291" lon="13.212776509560832"><ele>1.0</ele><time>2026-05-02T19:13:33.001Z</time></trkpt><trkpt lat="45.816833210000986" lon="13.212808643984367"><ele>1.0</ele><time>2026-05-02T19:13:35.001Z</time></trkpt><trkpt lat="45.816723806776174" lon="13.212835813059758"><ele>1.0</ele><time>2026-05-02T19:13:37.001Z</time></trkpt><trkpt lat="45.81662155462194" lon="13.212886613055312"><ele>1.0</ele><time>2026-05-02T19:13:39Z</time></trkpt><trkpt lat="45.81661235527355" lon="13.21306946997013"><ele>1.0</ele><time>2026-05-02T19:13:41Z</time></trkpt><trkpt lat="45.81659839441558" lon="13.213232121839413"><ele>1.4</ele><time>2026-05-02T19:13:43Z</time></trkpt><trkpt lat="45.816593487435966" lon="13.213394780276937"><ele>1.8</ele><time>2026-05-02T19:13:45Z</time></trkpt><trkpt lat="45.81660629631039" lon="13.21355249359682"><ele>2.1999999999999997</ele><time>2026-05-02T19:13:47Z</time></trkpt><trkpt lat="45.81653970266147" lon="13.21366966082377"><ele>2.6</ele><time>2026-05-02T19:13:49Z</time></trkpt><trkpt lat="45.81646942360695" lon="13.213654094274528"><ele>3.0</ele><time>2026-05-02T19:13:50Z</time></trkpt><trkpt lat="45.81635953938607" lon="13.213682156815784"><ele>3.0</ele><time>2026-05-02T19:13:52Z</time></trkpt><trkpt lat="45.816249385680905" lon="13.213712585670098"><ele>3.0</ele><time>2026-05-02T19:13:54Z</time></trkpt><trkpt lat="45.81613675504764" lon="13.213744075332713"><ele>3.0</ele><time>2026-05-02T19:13:56Z</time></trkpt><trkpt lat="45.81602674724166" lon="13.213774831695103"><ele>3.0</ele><time>2026-05-02T19:13:58Z</time></trkpt><trkpt lat="45.81591925538109" lon="13.213804420800313"><ele>3.0</ele><time>2026-05-02T19:14:00Z</time></trkpt><trkpt lat="45.815814478092214" lon="13.21383194391504"><ele>3.0</ele><time>2026-05-02T19:14:02Z</time></trkpt><trkpt lat="45.81570419820197" lon="13.213859865429601"><ele>3.0</ele><time>2026-05-02T19:14:04Z</time></trkpt><trkpt lat="45.815599127880056" lon="13.213882822174421"><ele>3.0</ele><time>2026-05-02T19:14:06Z</time></trkpt><trkpt lat="45.815485718923554" lon="13.213904854595226"><ele>3.0</ele><time>2026-05-02T19:14:08Z</time></trkpt><trkpt lat="45.81537528152518" lon="13.213925169889206"><ele>3.0</ele><time>2026-05-02T19:14:10Z</time></trkpt><trkpt lat="45.815262825955806" lon="13.213945856427781"><ele>3.0</ele><time>2026-05-02T19:14:12Z</time></trkpt><trkpt lat="45.81515178036448" lon="13.213968611979455"><ele>3.0</ele><time>2026-05-02T19:14:14Z</time></trkpt><trkpt lat="45.8150376407588" lon="13.213994675686488"><ele>3.0</ele><time>2026-05-02T19:14:16Z</time></trkpt><trkpt lat="45.814921813269244" lon="13.214020157726171"><ele>3.0</ele><time>2026-05-02T19:14:18Z</time></trkpt><trkpt lat="45.81481057523148" lon="13.214034509945597"><ele>3.0</ele><time>2026-05-02T19:14:20Z</time></trkpt><trkpt lat="45.814695828265904" lon="13.214047930345108"><ele>3.0</ele><time>2026-05-02T19:14:22Z</time></trkpt><trkpt lat="45.81458295283287" lon="13.214063303474896"><ele>3.0</ele><time>2026-05-02T19:14:24Z</time></trkpt><trkpt lat="45.81446531818403" lon="13.214090102694296"><ele>3.0</ele><time>2026-05-02T19:14:26Z</time></trkpt><trkpt lat="45.8143546274821" lon="13.214144719518346"><ele>2.75</ele><time>2026-05-02T19:14:28Z</time></trkpt><trkpt lat="45.81423637214559" lon="13.214175564549201"><ele>2.5</ele><time>2026-05-02T19:14:30Z</time></trkpt><trkpt lat="45.81412472540631" lon="13.214239463587054"><ele>2.25</ele><time>2026-05-02T19:14:32Z</time></trkpt><trkpt lat="45.81401552637732" lon="13.21430505877595"><ele>2.0</ele><time>2026-05-02T19:14:34Z</time></trkpt><trkpt lat="45.813904877663106" lon="13.214372586751846"><ele>2.0</ele><time>2026-05-02T19:14:35.999Z</time></trkpt><trkpt lat="45.81379695922467" lon="13.2144401808005"><ele>2.0</ele><time>2026-05-02T19:14:37.999Z</time></trkpt><trkpt lat="45.81368760265461" lon="13.214510490426331"><ele>2.0</ele><time>2026-05-02T19:14:39.999Z</time></trkpt><trkpt lat="45.813595101718846" lon="13.214612581027769"><ele>2.0</ele><time>2026-05-02T19:14:41.999Z</time></trkpt><trkpt lat="45.81351919800487" lon="13.21472342482907"><ele>2.0</ele><time>2026-05-02T19:14:43.999Z</time></trkpt><trkpt lat="45.81343852858283" lon="13.2146864870659"><ele>2.0</ele><time>2026-05-02T19:14:45.999Z</time></trkpt><trkpt lat="45.8133422801176" lon="13.214602019534592"><ele>2.0</ele><time>2026-05-02T19:14:47.999Z</time></trkpt><trkpt lat="45.81325229996625" lon="13.214508042502045"><ele>2.0</ele><time>2026-05-02T19:14:49.999Z</time></trkpt><trkpt lat="45.813156632515415" lon="13.214418455172021"><ele>2.0</ele><time>2026-05-02T19:14:51.999Z</time></trkpt><trkpt lat="45.81305763125344" lon="13.214333023142316"><ele>2.0</ele><time>2026-05-02T19:14:53.999Z</time></trkpt><trkpt lat="45.81296115055428" lon="13.214243775249347"><ele>2.0</ele><time>2026-05-02T19:14:55.999Z</time></trkpt><trkpt lat="45.81286541297694" lon="13.214156646153713"><ele>2.0</ele><time>2026-05-02T19:14:57.999Z</time></trkpt><trkpt lat="45.81276939092988" lon="13.214070433973257"><ele>2.0</ele><time>2026-05-02T19:14:59.999Z</time></trkpt><trkpt lat="45.81266817136403" lon="13.213981791490244"><ele>2.0</ele><time>2026-05-02T19:15:01.999Z</time></trkpt><trkpt lat="45.812569230553756" lon="13.213890307570804"><ele>2.0</ele><time>2026-05-02T19:15:03.999Z</time></trkpt><trkpt lat="45.812469489127295" lon="13.213799036610288"><ele>2.0</ele><time>2026-05-02T19:15:05.999Z</time></trkpt><trkpt lat="45.812367902308296" lon="13.213705308844615"><ele>2.0</ele><time>2026-05-02T19:15:07.999Z</time></trkpt><trkpt lat="45.81226555985364" lon="13.213625891251954"><ele>2.0</ele><time>2026-05-02T19:15:09.999Z</time></trkpt><trkpt lat="45.812178649562746" lon="13.213507361610235"><ele>2.0</ele><time>2026-05-02T19:15:11.999Z</time></trkpt><trkpt lat="45.812097201200636" lon="13.213406439534541"><ele>2.0</ele><time>2026-05-02T19:15:13.999Z</time></trkpt><trkpt lat="45.81202022618188" lon="13.21329124115399"><ele>2.0</ele><time>2026-05-02T19:15:15.999Z</time></trkpt><trkpt lat="45.811960723868225" lon="13.213186451233005"><ele>2.0</ele><time>2026-05-02T19:15:17.999Z</time></trkpt><trkpt lat="45.81178520766843" lon="13.213309503852251"><ele>1.8</ele><time>2026-05-02T19:15:20Z</time></trkpt><trkpt lat="45.81167334453089" lon="13.213345344702104"><ele>1.6</ele><time>2026-05-02T19:15:22Z</time></trkpt><trkpt lat="45.81161000511997" lon="13.213354728788302"><ele>1.4000000000000001</ele><time>2026-05-02T19:15:23Z</time></trkpt><trkpt lat="45.811495231954254" lon="13.213352029815177"><ele>1.2000000000000002</ele><time>2026-05-02T19:15:25Z</time></trkpt><trkpt lat="45.81137430282399" lon="13.213340480533894"><ele>1.0</ele><time>2026-05-02T19:15:27Z</time></trkpt><trkpt lat="45.81126076788842" lon="13.213325835120852"><ele>1.0</ele><time>2026-05-02T19:15:29Z</time></trkpt><trkpt lat="45.81114211313261" lon="13.213301763562768"><ele>1.0</ele><time>2026-05-02T19:15:31Z</time></trkpt><trkpt lat="45.811032238852654" lon="13.213269449863196"><ele>1.0</ele><time>2026-05-02T19:15:33Z</time></trkpt><trkpt lat="45.81092187085168" lon="13.21323267728981"><ele>1.0</ele><time>2026-05-02T19:15:35Z</time></trkpt><trkpt lat="45.81081685107664" lon="13.213194699136512"><ele>1.2000000000000002</ele><time>2026-05-02T19:15:37Z</time></trkpt><trkpt lat="45.810712751790255" lon="13.21315522089797"><ele>1.4000000000000001</ele><time>2026-05-02T19:15:39Z</time></trkpt><trkpt lat="45.810610126027356" lon="13.21311751338407"><ele>1.6</ele><time>2026-05-02T19:15:41Z</time></trkpt><trkpt lat="45.81050425379345" lon="13.213067766777941"><ele>1.8</ele><time>2026-05-02T19:15:43Z</time></trkpt><trkpt lat="45.810392776667996" lon="13.213025768458488"><ele>2.0</ele><time>2026-05-02T19:15:44.999Z</time></trkpt><trkpt lat="45.81028419981623" lon="13.212983041357429"><ele>2.0</ele><time>2026-05-02T19:15:46.999Z</time></trkpt><trkpt lat="45.81017533593834" lon="13.212946641545104"><ele>2.0</ele><time>2026-05-02T19:15:48.999Z</time></trkpt><trkpt lat="45.81006381910435" lon="13.212905422437432"><ele>2.0</ele><time>2026-05-02T19:15:50.999Z</time></trkpt><trkpt lat="45.80994888987964" lon="13.212873263261304"><ele>2.0</ele><time>2026-05-02T19:15:52.999Z</time></trkpt><trkpt lat="45.809834826037125" lon="13.212824457954216"><ele>2.0</ele><time>2026-05-02T19:15:54.999Z</time></trkpt><trkpt lat="45.8097189606683" lon="13.21278384499528"><ele>2.0</ele><time>2026-05-02T19:15:56.999Z</time></trkpt><trkpt lat="45.80959735168409" lon="13.212746464433211"><ele>2.0</ele><time>2026-05-02T19:15:58.999Z</time></trkpt><trkpt lat="45.80948128073704" lon="13.212711996505938"><ele>2.0</ele><time>2026-05-02T19:16:00.999Z</time></trkpt><trkpt lat="45.809376616397074" lon="13.212701187948047"><ele>1.75</ele><time>2026-05-02T19:16:02.999Z</time></trkpt><trkpt lat="45.80925989042912" lon="13.212690256827969"><ele>1.5</ele><time>2026-05-02T19:16:04.999Z</time></trkpt><trkpt lat="45.809143972988984" lon="13.212694554973972"><ele>1.25</ele><time>2026-05-02T19:16:06.999Z</time></trkpt><trkpt lat="45.8090296168699" lon="13.21269447483242"><ele>1.0</ele><time>2026-05-02T19:16:08.999Z</time></trkpt><trkpt lat="45.80891395332546" lon="13.21269214081419"><ele>1.0</ele><time>2026-05-02T19:16:10.999Z</time></trkpt><trkpt lat="45.80879448456477" lon="13.212692012130248"><ele>1.0</ele><time>2026-05-02T19:16:12.999Z</time></trkpt><trkpt lat="45.80867253423437" lon="13.212694401052113"><ele>1.0</ele><time>2026-05-02T19:16:14.999Z</time></trkpt><trkpt lat="45.80855042934184" lon="13.212694797752148"><ele>1.0</ele><time>2026-05-02T19:16:16.999Z</time></trkpt><trkpt lat="45.80848767221867" lon="13.212702081311507"><ele>1.0</ele><time>2026-05-02T19:16:17.999Z</time></trkpt><trkpt lat="45.808368371790536" lon="13.21269824829637"><ele>0.6000000000000001</ele><time>2026-05-02T19:16:19.999Z</time></trkpt><trkpt lat="45.80824729418559" lon="13.212699010564144"><ele>0.20000000000000007</ele><time>2026-05-02T19:16:21.999Z</time></trkpt><trkpt lat="45.808130214403086" lon="13.212698025220432"><ele>-0.20000000000000007</ele><time>2026-05-02T19:16:23.999Z</time></trkpt><trkpt lat="45.808008748616466" lon="13.21271029535654"><ele>-0.6000000000000001</ele><time>2026-05-02T19:16:25.999Z</time></trkpt><trkpt lat="45.807945790040115" lon="13.212701144659373"><ele>-1.0</ele><time>2026-05-02T19:16:26.999Z</time></trkpt><trkpt lat="45.807829774829926" lon="13.21270543941015"><ele>-1.0</ele><time>2026-05-02T19:16:28.999Z</time></trkpt><trkpt lat="45.80770686546128" lon="13.212699996171603"><ele>-1.0</ele><time>2026-05-02T19:16:30.999Z</time></trkpt><trkpt lat="45.80758973533895" lon="13.21270658609405"><ele>-1.0</ele><time>2026-05-02T19:16:32.999Z</time></trkpt><trkpt lat="45.80747516569719" lon="13.21270482355957"><ele>-1.0</ele><time>2026-05-02T19:16:34.999Z</time></trkpt><trkpt lat="45.80735376054207" lon="13.212703069718893"><ele>-0.75</ele><time>2026-05-02T19:16:36.999Z</time></trkpt><trkpt lat="45.807231295564456" lon="13.212710829029213"><ele>-0.5</ele><time>2026-05-02T19:16:38.999Z</time></trkpt><trkpt lat="45.80711158879041" lon="13.21271490134523"><ele>-0.25</ele><time>2026-05-02T19:16:40.999Z</time></trkpt><trkpt lat="45.806994519211266" lon="13.21270799071131"><ele>0.0</ele><time>2026-05-02T19:16:42.999Z</time></trkpt><trkpt lat="45.80687888511925" lon="13.212710677844436"><ele>0.0</ele><time>2026-05-02T19:16:44.999Z</time></trkpt><trkpt lat="45.806764296990046" lon="13.212715740912664"><ele>0.0</ele><time>2026-05-02T19:16:46.999Z</time></trkpt><trkpt lat="45.806647809157425" lon="13.212713969662405"><ele>0.0</ele><time>2026-05-02T19:16:48.999Z</time></trkpt><trkpt lat="45.806531876577836" lon="13.212716964372715"><ele>0.0</ele><time>2026-05-02T19:16:50.999Z</time></trkpt><trkpt lat="45.80641454100383" lon="13.212713542533256"><ele>0.0</ele><time>2026-05-02T19:16:52.999Z</time></trkpt><trkpt lat="45.80629781809117" lon="13.212716970861468"><ele>0.0</ele><time>2026-05-02T19:16:54.999Z</time></trkpt><trkpt lat="45.80618650886695" lon="13.212715774454514"><ele>0.0</ele><time>2026-05-02T19:16:56.999Z</time></trkpt><trkpt lat="45.80607540294957" lon="13.212721352927154"><ele>0.0</ele><time>2026-05-02T19:16:58.999Z</time></trkpt><trkpt lat="45.80596810768964" lon="13.212721253303743"><ele>0.0</ele><time>2026-05-02T19:17:00.999Z</time></trkpt><trkpt lat="45.805857876440996" lon="13.212732515054324"><ele>-0.25</ele><time>2026-05-02T19:17:02.999Z</time></trkpt><trkpt lat="45.80574333030609" lon="13.21273158536722"><ele>-0.5</ele><time>2026-05-02T19:17:04.999Z</time></trkpt><trkpt lat="45.80562645397558" lon="13.212720764193762"><ele>-0.75</ele><time>2026-05-02T19:17:06.999Z</time></trkpt><trkpt lat="45.8055112320432" lon="13.212720690356564"><ele>-1.0</ele><time>2026-05-02T19:17:08.999Z</time></trkpt><trkpt lat="45.80539855880553" lon="13.212723688740155"><ele>-1.0</ele><time>2026-05-02T19:17:10.999Z</time></trkpt><trkpt lat="45.80528449037209" lon="13.21272009127053"><ele>-1.0</ele><time>2026-05-02T19:17:12.999Z</time></trkpt><trkpt lat="45.80517100328196" lon="13.212712140153322"><ele>-1.0</ele><time>2026-05-02T19:17:14.999Z</time></trkpt><trkpt lat="45.80505814433557" lon="13.212705973188791"><ele>-1.0</ele><time>2026-05-02T19:17:16.999Z</time></trkpt><trkpt lat="45.804944610735234" lon="13.212711865727416"><ele>-0.75</ele><time>2026-05-02T19:17:18.999Z</time></trkpt><trkpt lat="45.80483282635316" lon="13.212713880304424"><ele>-0.5</ele><time>2026-05-02T19:17:20.998Z</time></trkpt><trkpt lat="45.80472682135115" lon="13.212707774215113"><ele>-0.25</ele><time>2026-05-02T19:17:22.998Z</time></trkpt><trkpt lat="45.80461021853736" lon="13.212700162999157"><ele>0.0</ele><time>2026-05-02T19:17:24.998Z</time></trkpt><trkpt lat="45.80449466347842" lon="13.21270312586085"><ele>0.0</ele><time>2026-05-02T19:17:27Z</time></trkpt><trkpt lat="45.804382870168105" lon="13.21270018171548"><ele>0.0</ele><time>2026-05-02T19:17:29Z</time></trkpt><trkpt lat="45.80426497272387" lon="13.212698975953863"><ele>0.0</ele><time>2026-05-02T19:17:31Z</time></trkpt><trkpt lat="45.80414806571337" lon="13.212692326001308"><ele>0.0</ele><time>2026-05-02T19:17:33Z</time></trkpt><trkpt lat="45.80403144935042" lon="13.212699172890401"><ele>0.0</ele><time>2026-05-02T19:17:35Z</time></trkpt><trkpt lat="45.80391500094103" lon="13.212698240821833"><ele>0.0</ele><time>2026-05-02T19:17:37Z</time></trkpt><trkpt lat="45.80379921584315" lon="13.212695691279126"><ele>0.0</ele><time>2026-05-02T19:17:39Z</time></trkpt><trkpt lat="45.80368234492542" lon="13.21269423126485"><ele>0.0</ele><time>2026-05-02T19:17:41Z</time></trkpt><trkpt lat="45.80356019714136" lon="13.212693433703537"><ele>0.0</ele><time>2026-05-02T19:17:43Z</time></trkpt><trkpt lat="45.80344293131452" lon="13.212684411876035"><ele>0.0</ele><time>2026-05-02T19:17:45Z</time></trkpt><trkpt lat="45.80332843659939" lon="13.212685900884836"><ele>0.0</ele><time>2026-05-02T19:17:47Z</time></trkpt><trkpt lat="45.8032148437005" lon="13.212689875215236"><ele>0.0</ele><time>2026-05-02T19:17:49Z</time></trkpt><trkpt lat="45.803104640873876" lon="13.212682982590584"><ele>0.0</ele><time>2026-05-02T19:17:51Z</time></trkpt><trkpt lat="45.80299149812267" lon="13.212686534093582"><ele>0.0</ele><time>2026-05-02T19:17:53Z</time></trkpt><trkpt lat="45.80287529293161" lon="13.212679506210526"><ele>0.0</ele><time>2026-05-02T19:17:54.999Z</time></trkpt><trkpt lat="45.80276217193059" lon="13.212679386637115"><ele>0.0</ele><time>2026-05-02T19:17:56.999Z</time></trkpt><trkpt lat="45.80264973743079" lon="13.212676695771655"><ele>-0.25</ele><time>2026-05-02T19:17:58.999Z</time></trkpt><trkpt lat="45.80253544378904" lon="13.212676440790442"><ele>-0.5</ele><time>2026-05-02T19:18:00.999Z</time></trkpt><trkpt lat="45.802418800105826" lon="13.21267394413086"><ele>-0.75</ele><time>2026-05-02T19:18:02.999Z</time></trkpt><trkpt lat="45.8023019527621" lon="13.212670227935972"><ele>-1.0</ele><time>2026-05-02T19:18:04.999Z</time></trkpt><trkpt lat="45.80218895587988" lon="13.212666113730911"><ele>-1.0</ele><time>2026-05-02T19:18:06.999Z</time></trkpt><trkpt lat="45.80207401739786" lon="13.212668455255857"><ele>-1.0</ele><time>2026-05-02T19:18:08.999Z</time></trkpt><trkpt lat="45.80196088488321" lon="13.21266565850467"><ele>-1.0</ele><time>2026-05-02T19:18:10.999Z</time></trkpt><trkpt lat="45.801845075309" lon="13.212664957408231"><ele>-1.0</ele><time>2026-05-02T19:18:12.999Z</time></trkpt><trkpt lat="45.80172851991492" lon="13.212664490511429"><ele>-0.5</ele><time>2026-05-02T19:18:14.999Z</time></trkpt><trkpt lat="45.80161359390254" lon="13.212660886828756"><ele>0.0</ele><time>2026-05-02T19:18:16.999Z</time></trkpt><trkpt lat="45.80149989645349" lon="13.212655658778868"><ele>0.5</ele><time>2026-05-02T19:18:18.999Z</time></trkpt><trkpt lat="45.80138504020158" lon="13.212653294435093"><ele>1.0</ele><time>2026-05-02T19:18:20.999Z</time></trkpt><trkpt lat="45.80127209213926" lon="13.212650433430742"><ele>1.0</ele><time>2026-05-02T19:18:22.999Z</time></trkpt><trkpt lat="45.801162974699274" lon="13.212649017813726"><ele>1.0</ele><time>2026-05-02T19:18:24.999Z</time></trkpt><trkpt lat="45.80104447077115" lon="13.212651509728397"><ele>1.0</ele><time>2026-05-02T19:18:26.999Z</time></trkpt><trkpt lat="45.800981391593744" lon="13.212645284688424"><ele>1.0</ele><time>2026-05-02T19:18:27.999Z</time></trkpt><trkpt lat="45.80087019248748" lon="13.212646315352405"><ele>1.0</ele><time>2026-05-02T19:18:29.999Z</time></trkpt><trkpt lat="45.800756012652585" lon="13.212648409980833"><ele>0.75</ele><time>2026-05-02T19:18:31.999Z</time></trkpt><trkpt lat="45.800639962634904" lon="13.21263967103917"><ele>0.5</ele><time>2026-05-02T19:18:33.999Z</time></trkpt><trkpt lat="45.80052624089384" lon="13.212637695369185"><ele>0.25</ele><time>2026-05-02T19:18:35.999Z</time></trkpt><trkpt lat="45.80040873901737" lon="13.212632635838313"><ele>0.0</ele><time>2026-05-02T19:18:37.999Z</time></trkpt><trkpt lat="45.800295573539564" lon="13.212640391586998"><ele>0.0</ele><time>2026-05-02T19:18:39.999Z</time></trkpt><trkpt lat="45.80018248392261" lon="13.212634831113348"><ele>0.0</ele><time>2026-05-02T19:18:41.999Z</time></trkpt><trkpt lat="45.800065635956024" lon="13.212634403914132"><ele>0.0</ele><time>2026-05-02T19:18:43.999Z</time></trkpt><trkpt lat="45.79995384289364" lon="13.212638734444225"><ele>0.0</ele><time>2026-05-02T19:18:45.999Z</time></trkpt><trkpt lat="45.799837754042905" lon="13.212631979093278"><ele>-0.25</ele><time>2026-05-02T19:18:47.999Z</time></trkpt><trkpt lat="45.79972406445535" lon="13.212630047427666"><ele>-0.5</ele><time>2026-05-02T19:18:49.999Z</time></trkpt><trkpt lat="45.79961341640076" lon="13.212627018572647"><ele>-0.75</ele><time>2026-05-02T19:18:51.999Z</time></trkpt><trkpt lat="45.79949980358808" lon="13.212625058599084"><ele>-1.0</ele><time>2026-05-02T19:18:53.999Z</time></trkpt><trkpt lat="45.79938565444646" lon="13.21262779677783"><ele>-1.0</ele><time>2026-05-02T19:18:55.999Z</time></trkpt><trkpt lat="45.79927324209588" lon="13.212629733097382"><ele>-1.0</ele><time>2026-05-02T19:18:57.999Z</time></trkpt><trkpt lat="45.79916069880879" lon="13.212624202324484"><ele>-1.0</ele><time>2026-05-02T19:18:59.999Z</time></trkpt><trkpt lat="45.79904833525222" lon="13.212619029924651"><ele>-1.0</ele><time>2026-05-02T19:19:01.999Z</time></trkpt><trkpt lat="45.79893281478822" lon="13.212615556648352"><ele>-1.0</ele><time>2026-05-02T19:19:03.999Z</time></trkpt><trkpt lat="45.798821673624325" lon="13.212613833508764"><ele>-1.0</ele><time>2026-05-02T19:19:05.999Z</time></trkpt><trkpt lat="45.79870895046016" lon="13.212624713635266"><ele>-1.0</ele><time>2026-05-02T19:19:07.999Z</time></trkpt><trkpt lat="45.79859670233475" lon="13.21261425226785"><ele>-1.0</ele><time>2026-05-02T19:19:09.999Z</time></trkpt><trkpt lat="45.798486599462066" lon="13.212609874354253"><ele>-1.0</ele><time>2026-05-02T19:19:11.999Z</time></trkpt><trkpt lat="45.798372229646475" lon="13.212608653118414"><ele>-1.25</ele><time>2026-05-02T19:19:13.999Z</time></trkpt><trkpt lat="45.79825759522495" lon="13.212610286746136"><ele>-1.5</ele><time>2026-05-02T19:19:15.999Z</time></trkpt><trkpt lat="45.79814416302407" lon="13.21260399315312"><ele>-1.75</ele><time>2026-05-02T19:19:17.999Z</time></trkpt><trkpt lat="45.79802874285" lon="13.212601677299995"><ele>-2.0</ele><time>2026-05-02T19:19:19.999Z</time></trkpt><trkpt lat="45.79791923094339" lon="13.212598402777775"><ele>-2.0</ele><time>2026-05-02T19:19:21.999Z</time></trkpt><trkpt lat="45.79780724586514" lon="13.212592163269186"><ele>-2.0</ele><time>2026-05-02T19:19:23.999Z</time></trkpt><trkpt lat="45.79769500814247" lon="13.212595150669365"><ele>-2.0</ele><time>2026-05-02T19:19:25.999Z</time></trkpt><trkpt lat="45.79757600011233" lon="13.212600639485421"><ele>-2.0</ele><time>2026-05-02T19:19:27.999Z</time></trkpt><trkpt lat="45.79746246504324" lon="13.212626226801659"><ele>-2.0</ele><time>2026-05-02T19:19:29.999Z</time></trkpt><trkpt lat="45.797350147540236" lon="13.212652143267091"><ele>-2.0</ele><time>2026-05-02T19:19:32Z</time></trkpt><trkpt lat="45.79724076940323" lon="13.212676913307522"><ele>-2.0</ele><time>2026-05-02T19:19:34Z</time></trkpt><trkpt lat="45.797127818112976" lon="13.212703453480227"><ele>-2.0</ele><time>2026-05-02T19:19:36Z</time></trkpt><trkpt lat="45.797018311855915" lon="13.212731428094507"><ele>-2.0</ele><time>2026-05-02T19:19:38Z</time></trkpt><trkpt lat="45.796907157295486" lon="13.21276785129801"><ele>-2.0</ele><time>2026-05-02T19:19:40Z</time></trkpt><trkpt lat="45.796796456273334" lon="13.212802323766821"><ele>-2.0</ele><time>2026-05-02T19:19:42Z</time></trkpt><trkpt lat="45.79668492772077" lon="13.212837159540408"><ele>-2.0</ele><time>2026-05-02T19:19:44Z</time></trkpt><trkpt lat="45.7965803425423" lon="13.212880566172782"><ele>-2.25</ele><time>2026-05-02T19:19:46Z</time></trkpt><trkpt lat="45.796475689600676" lon="13.212930425273573"><ele>-2.5</ele><time>2026-05-02T19:19:48Z</time></trkpt><trkpt lat="45.796368640426834" lon="13.212986083484285"><ele>-2.75</ele><time>2026-05-02T19:19:50Z</time></trkpt><trkpt lat="45.796263928646475" lon="13.213051524910417"><ele>-3.0</ele><time>2026-05-02T19:19:52Z</time></trkpt><trkpt lat="45.79616752938985" lon="13.21313367415512"><ele>-2.25</ele><time>2026-05-02T19:19:54Z</time></trkpt><trkpt lat="45.796067096479966" lon="13.213219256704742"><ele>-1.5</ele><time>2026-05-02T19:19:56Z</time></trkpt><trkpt lat="45.795968188814975" lon="13.213311401215002"><ele>-0.75</ele><time>2026-05-02T19:19:58Z</time></trkpt><trkpt lat="45.79587118218693" lon="13.213395105804171"><ele>0.0</ele><time>2026-05-02T19:20:00Z</time></trkpt><trkpt lat="45.79578014651019" lon="13.213492057212697"><ele>0.2</ele><time>2026-05-02T19:20:01.999Z</time></trkpt><trkpt lat="45.795685950379564" lon="13.213579990307684"><ele>0.4</ele><time>2026-05-02T19:20:03.999Z</time></trkpt><trkpt lat="45.79559359405584" lon="13.213667849712069"><ele>0.6000000000000001</ele><time>2026-05-02T19:20:05.999Z</time></trkpt><trkpt lat="45.79549993897474" lon="13.213754496778492"><ele>0.8</ele><time>2026-05-02T19:20:07.999Z</time></trkpt><trkpt lat="45.795414276079576" lon="13.213838093269896"><ele>1.0</ele><time>2026-05-02T19:20:09.999Z</time></trkpt><trkpt lat="45.79533121241137" lon="13.213914772336125"><ele>1.25</ele><time>2026-05-02T19:20:11.999Z</time></trkpt><trkpt lat="45.795246340417215" lon="13.213997687883372"><ele>1.5</ele><time>2026-05-02T19:20:13.999Z</time></trkpt><trkpt lat="45.79515138335166" lon="13.214088022046889"><ele>1.75</ele><time>2026-05-02T19:20:15.999Z</time></trkpt><trkpt lat="45.795054355825926" lon="13.214183058104165"><ele>2.0</ele><time>2026-05-02T19:20:17.999Z</time></trkpt><trkpt lat="45.79495521601185" lon="13.214276323916238"><ele>2.0</ele><time>2026-05-02T19:20:19.999Z</time></trkpt><trkpt lat="45.79486089397462" lon="13.214368966059846"><ele>2.0</ele><time>2026-05-02T19:20:21.999Z</time></trkpt><trkpt lat="45.7947646311674" lon="13.214472110560086"><ele>2.0</ele><time>2026-05-02T19:20:23.999Z</time></trkpt><trkpt lat="45.79466782563619" lon="13.214564743821787"><ele>2.0</ele><time>2026-05-02T19:20:25.999Z</time></trkpt><trkpt lat="45.7945672187355" lon="13.214660179314405"><ele>2.0</ele><time>2026-05-02T19:20:27.999Z</time></trkpt><trkpt lat="45.794464232232095" lon="13.214755188267427"><ele>2.0</ele><time>2026-05-02T19:20:29.999Z</time></trkpt><trkpt lat="45.794364949936124" lon="13.214845191797952"><ele>2.0</ele><time>2026-05-02T19:20:31.999Z</time></trkpt><trkpt lat="45.794270321297134" lon="13.21494004531536"><ele>2.0</ele><time>2026-05-02T19:20:33.999Z</time></trkpt><trkpt lat="45.79417276428625" lon="13.215036747654992"><ele>1.75</ele><time>2026-05-02T19:20:35.999Z</time></trkpt><trkpt lat="45.79407120753904" lon="13.215133857562135"><ele>1.5</ele><time>2026-05-02T19:20:37.999Z</time></trkpt><trkpt lat="45.79397311208939" lon="13.215227171022788"><ele>1.25</ele><time>2026-05-02T19:20:39.999Z</time></trkpt><trkpt lat="45.79387379924777" lon="13.215323619638214"><ele>1.0</ele><time>2026-05-02T19:20:41.999Z</time></trkpt><trkpt lat="45.79377475886626" lon="13.215424051816159"><ele>1.0</ele><time>2026-05-02T19:20:43.999Z</time></trkpt><trkpt lat="45.79367125885718" lon="13.215513802588708"><ele>1.0</ele><time>2026-05-02T19:20:45.999Z</time></trkpt><trkpt lat="45.79357803992951" lon="13.21561142233881"><ele>1.0</ele><time>2026-05-02T19:20:47.999Z</time></trkpt><trkpt lat="45.79348639901984" lon="13.215704723865493"><ele>1.0</ele><time>2026-05-02T19:20:49.999Z</time></trkpt><trkpt lat="45.79338918334114" lon="13.215802390636709"><ele>0.75</ele><time>2026-05-02T19:20:51.999Z</time></trkpt><trkpt lat="45.79328963259819" lon="13.21589854731585"><ele>0.5</ele><time>2026-05-02T19:20:53.999Z</time></trkpt><trkpt lat="45.79319248418907" lon="13.21598456541014"><ele>0.25</ele><time>2026-05-02T19:20:55.999Z</time></trkpt><trkpt lat="45.79309363496179" lon="13.216081978107928"><ele>0.0</ele><time>2026-05-02T19:20:57.999Z</time></trkpt><trkpt lat="45.792997009175366" lon="13.21617208955042"><ele>0.0</ele><time>2026-05-02T19:20:59.999Z</time></trkpt><trkpt lat="45.792903287891654" lon="13.216268723028065"><ele>0.0</ele><time>2026-05-02T19:21:01.999Z</time></trkpt><trkpt lat="45.79280569407038" lon="13.216354128768739"><ele>0.0</ele><time>2026-05-02T19:21:03.999Z</time></trkpt><trkpt lat="45.792712814980554" lon="13.216451743049806"><ele>0.0</ele><time>2026-05-02T19:21:05.999Z</time></trkpt><trkpt lat="45.79261908654805" lon="13.216545822323884"><ele>0.0</ele><time>2026-05-02T19:21:07.999Z</time></trkpt><trkpt lat="45.79251979507655" lon="13.216637308813038"><ele>0.0</ele><time>2026-05-02T19:21:09.999Z</time></trkpt><trkpt lat="45.792424498264694" lon="13.21672974686205"><ele>0.0</ele><time>2026-05-02T19:21:11.999Z</time></trkpt><trkpt lat="45.792331136949954" lon="13.216819544836955"><ele>0.0</ele><time>2026-05-02T19:21:13.999Z</time></trkpt><trkpt lat="45.79223923864516" lon="13.216908417387748"><ele>0.0</ele><time>2026-05-02T19:21:15.999Z</time></trkpt><trkpt lat="45.79214319161023" lon="13.216995292745567"><ele>0.0</ele><time>2026-05-02T19:21:17.999Z</time></trkpt><trkpt lat="45.7920443833121" lon="13.217081502843925"><ele>0.0</ele><time>2026-05-02T19:21:19.999Z</time></trkpt><trkpt lat="45.791954915504036" lon="13.217172738144177"><ele>0.0</ele><time>2026-05-02T19:21:21.999Z</time></trkpt><trkpt lat="45.79186734451333" lon="13.217255840974753"><ele>0.0</ele><time>2026-05-02T19:21:23.999Z</time></trkpt><trkpt lat="45.791780388621" lon="13.21734847249836"><ele>0.0</ele><time>2026-05-02T19:21:25.999Z</time></trkpt><trkpt lat="45.791693459901076" lon="13.217436566128336"><ele>0.0</ele><time>2026-05-02T19:21:27.999Z</time></trkpt><trkpt lat="45.791615466367645" lon="13.217542902380018"><ele>0.0</ele><time>2026-05-02T19:21:29.999Z</time></trkpt><trkpt lat="45.791558683679696" lon="13.217679197200276"><ele>0.0</ele><time>2026-05-02T19:21:31.999Z</time></trkpt><trkpt lat="45.79152916717752" lon="13.2178354953531"><ele>0.0</ele><time>2026-05-02T19:21:33.999Z</time></trkpt><trkpt lat="45.791516304208145" lon="13.217994851338732"><ele>0.25</ele><time>2026-05-02T19:21:35.999Z</time></trkpt><trkpt lat="45.79153352617863" lon="13.218159321098332"><ele>0.5</ele><time>2026-05-02T19:21:38Z</time></trkpt><trkpt lat="45.79156749996198" lon="13.218318271095088"><ele>0.75</ele><time>2026-05-02T19:21:40Z</time></trkpt><trkpt lat="45.79159568100729" lon="13.218470811041275"><ele>1.0</ele><time>2026-05-02T19:21:42Z</time></trkpt><trkpt lat="45.79162504713104" lon="13.218623521025464"><ele>1.0</ele><time>2026-05-02T19:21:44Z</time></trkpt><trkpt lat="45.79165562814911" lon="13.218779791821843"><ele>1.0</ele><time>2026-05-02T19:21:46Z</time></trkpt><trkpt lat="45.791686241655896" lon="13.218931790448478"><ele>1.0</ele><time>2026-05-02T19:21:48Z</time></trkpt><trkpt lat="45.79171606638759" lon="13.219080272580547"><ele>1.0</ele><time>2026-05-02T19:21:50Z</time></trkpt><trkpt lat="45.79174512597611" lon="13.219232970138595"><ele>1.0</ele><time>2026-05-02T19:21:52Z</time></trkpt><trkpt lat="45.79177734427704" lon="13.219380302422788"><ele>1.0</ele><time>2026-05-02T19:21:54Z</time></trkpt><trkpt lat="45.79182047202225" lon="13.219527261053692"><ele>1.0</ele><time>2026-05-02T19:21:56Z</time></trkpt><trkpt lat="45.79186753350798" lon="13.219663580015728"><ele>1.0</ele><time>2026-05-02T19:21:58Z</time></trkpt><trkpt lat="45.791918846048034" lon="13.219798053404899"><ele>1.0</ele><time>2026-05-02T19:22:00Z</time></trkpt><trkpt lat="45.791965320823486" lon="13.21993437815478"><ele>1.0</ele><time>2026-05-02T19:22:02Z</time></trkpt><trkpt lat="45.79200967850149" lon="13.220069939224711"><ele>0.6000000000000001</ele><time>2026-05-02T19:22:04Z</time></trkpt><trkpt lat="45.79205709871652" lon="13.220202938014008"><ele>0.20000000000000007</ele><time>2026-05-02T19:22:06Z</time></trkpt><trkpt lat="45.79209980055901" lon="13.220341390499874"><ele>-0.20000000000000007</ele><time>2026-05-02T19:22:08Z</time></trkpt><trkpt lat="45.79213861623358" lon="13.220481887286931"><ele>-0.6000000000000001</ele><time>2026-05-02T19:22:10Z</time></trkpt><trkpt lat="45.79217852142118" lon="13.220624292543274"><ele>-1.0</ele><time>2026-05-02T19:22:12Z</time></trkpt><trkpt lat="45.79221619339563" lon="13.22076268458069"><ele>-1.4</ele><time>2026-05-02T19:22:14Z</time></trkpt><trkpt lat="45.79225218837083" lon="13.220896700238251"><ele>-1.8</ele><time>2026-05-02T19:22:16Z</time></trkpt><trkpt lat="45.7922820869496" lon="13.221038692309795"><ele>-2.1999999999999997</ele><time>2026-05-02T19:22:18Z</time></trkpt><trkpt lat="45.79232138831592" lon="13.221181420813462"><ele>-2.6</ele><time>2026-05-02T19:22:20Z</time></trkpt><trkpt lat="45.79235586714512" lon="13.221320992618509"><ele>-3.0</ele><time>2026-05-02T19:22:21.999Z</time></trkpt><trkpt lat="45.79238796122557" lon="13.221462172333716"><ele>-2.8</ele><time>2026-05-02T19:22:23.999Z</time></trkpt><trkpt lat="45.792417289094246" lon="13.221608333004976"><ele>-2.5999999999999996</ele><time>2026-05-02T19:22:25.999Z</time></trkpt><trkpt lat="45.792441925108456" lon="13.221758553799496"><ele>-2.4000000000000004</ele><time>2026-05-02T19:22:27.999Z</time></trkpt><trkpt lat="45.792467499837095" lon="13.221906129239215"><ele>-2.2</ele><time>2026-05-02T19:22:29.999Z</time></trkpt><trkpt lat="45.79249474535254" lon="13.22205681869528"><ele>-2.0</ele><time>2026-05-02T19:22:31.999Z</time></trkpt><trkpt lat="45.792519317954714" lon="13.222208525571075"><ele>-1.8</ele><time>2026-05-02T19:22:33.999Z</time></trkpt><trkpt lat="45.79253977664637" lon="13.222361501885748"><ele>-1.6</ele><time>2026-05-02T19:22:35.999Z</time></trkpt><trkpt lat="45.79256415209953" lon="13.222511526212248"><ele>-1.4000000000000001</ele><time>2026-05-02T19:22:37.999Z</time></trkpt><trkpt lat="45.79259005262205" lon="13.222665071098664"><ele>-1.2000000000000002</ele><time>2026-05-02T19:22:39.999Z</time></trkpt><trkpt lat="45.792616656939536" lon="13.222814140133307"><ele>-1.0</ele><time>2026-05-02T19:22:41.999Z</time></trkpt><trkpt lat="45.79263497183407" lon="13.222969290213483"><ele>-1.0</ele><time>2026-05-02T19:22:43.999Z</time></trkpt><trkpt lat="45.79266180387163" lon="13.223123642868956"><ele>-1.0</ele><time>2026-05-02T19:22:45.999Z</time></trkpt><trkpt lat="45.79268542414337" lon="13.22327449190641"><ele>-1.0</ele><time>2026-05-02T19:22:47.999Z</time></trkpt><trkpt lat="45.79270981849022" lon="13.223429855163864"><ele>-1.0</ele><time>2026-05-02T19:22:49.999Z</time></trkpt><trkpt lat="45.79273550334405" lon="13.223576676620725"><ele>-1.0</ele><time>2026-05-02T19:22:51.999Z</time></trkpt><trkpt lat="45.792758029544025" lon="13.223730507412172"><ele>-0.8</ele><time>2026-05-02T19:22:53.999Z</time></trkpt><trkpt lat="45.79277797848887" lon="13.223885414570201"><ele>-0.6000000000000001</ele><time>2026-05-02T19:22:55.999Z</time></trkpt><trkpt lat="45.79280267314526" lon="13.224031234208857"><ele>-0.4</ele><time>2026-05-02T19:22:57.999Z</time></trkpt><trkpt lat="45.792827037550325" lon="13.224184093732427"><ele>-0.2</ele><time>2026-05-02T19:22:59.999Z</time></trkpt><trkpt lat="45.792860752784755" lon="13.224338024517037"><ele>0.0</ele><time>2026-05-02T19:23:01.999Z</time></trkpt><trkpt lat="45.79288548070517" lon="13.224482061985542"><ele>0.0</ele><time>2026-05-02T19:23:03.999Z</time></trkpt><trkpt lat="45.79291659915101" lon="13.224626505774115"><ele>0.0</ele><time>2026-05-02T19:23:05.999Z</time></trkpt><trkpt lat="45.7929475118589" lon="13.224768678675357"><ele>0.0</ele><time>2026-05-02T19:23:07.999Z</time></trkpt><trkpt lat="45.79298353145418" lon="13.224909550135077"><ele>0.0</ele><time>2026-05-02T19:23:09.999Z</time></trkpt><trkpt lat="45.7930196870027" lon="13.225048002004556"><ele>0.0</ele><time>2026-05-02T19:23:11.999Z</time></trkpt><trkpt lat="45.79305844499389" lon="13.225194222451755"><ele>0.2</ele><time>2026-05-02T19:23:13.999Z</time></trkpt><trkpt lat="45.7930931148818" lon="13.22534243527808"><ele>0.4</ele><time>2026-05-02T19:23:15.999Z</time></trkpt><trkpt lat="45.7931269242618" lon="13.225487151735509"><ele>0.6000000000000001</ele><time>2026-05-02T19:23:17.999Z</time></trkpt><trkpt lat="45.79316157219322" lon="13.225626579628996"><ele>0.8</ele><time>2026-05-02T19:23:19.999Z</time></trkpt><trkpt lat="45.79319778050019" lon="13.225762406822152"><ele>1.0</ele><time>2026-05-02T19:23:21.999Z</time></trkpt><trkpt lat="45.793234469460934" lon="13.22589471937682"><ele>1.0</ele><time>2026-05-02T19:23:23.999Z</time></trkpt><trkpt lat="45.79326581074031" lon="13.226021943641655"><ele>1.0</ele><time>2026-05-02T19:23:25.999Z</time></trkpt><trkpt lat="45.793300007352855" lon="13.226144279117504"><ele>1.0</ele><time>2026-05-02T19:23:27.999Z</time></trkpt><trkpt lat="45.793328496173885" lon="13.226258698172243"><ele>1.0</ele><time>2026-05-02T19:23:29.999Z</time></trkpt><trkpt lat="45.79335490047001" lon="13.226360807530629"><ele>1.0</ele><time>2026-05-02T19:23:31.999Z</time></trkpt><trkpt lat="45.793236183881206" lon="13.226395453097615"><ele>1.2000000000000002</ele><time>2026-05-02T19:23:34.999Z</time></trkpt><trkpt lat="45.79321411058248" lon="13.226670313894404"><ele>1.4000000000000001</ele><time>2026-05-02T19:23:36.999Z</time></trkpt><trkpt lat="45.79313834936041" lon="13.226705086596127"><ele>1.6</ele><time>2026-05-02T19:23:38.999Z</time></trkpt><trkpt lat="45.793080902170985" lon="13.226647883864723"><ele>1.8</ele><time>2026-05-02T19:23:39.999Z</time></trkpt><trkpt lat="45.792988318707145" lon="13.226667617750175"><ele>2.0</ele><time>2026-05-02T19:23:41.999Z</time></trkpt><trkpt lat="45.79290019542351" lon="13.22670240960861"><ele>2.0</ele><time>2026-05-02T19:23:44Z</time></trkpt><trkpt lat="45.79281478245717" lon="13.226687248747671"><ele>2.0</ele><time>2026-05-02T19:23:46Z</time></trkpt><trkpt lat="45.792770470267165" lon="13.226541744031097"><ele>2.0</ele><time>2026-05-02T19:23:48Z</time></trkpt><trkpt lat="45.79273287933498" lon="13.22640697901615"><ele>2.0</ele><time>2026-05-02T19:23:50Z</time></trkpt><trkpt lat="45.79269626504594" lon="13.226304735969894"><ele>2.0</ele><time>2026-05-02T19:23:52Z</time></trkpt><trkpt lat="45.79261834759882" lon="13.226330764227823"><ele>1.0</ele><time>2026-05-02T19:23:54Z</time></trkpt><trkpt lat="45.79259613485532" lon="13.226231759810407"><ele>1.0</ele><time>2026-05-02T19:23:56Z</time></trkpt><trkpt lat="45.792581206882" lon="13.226126484433284"><ele>1.0</ele><time>2026-05-02T19:23:58Z</time></trkpt><trkpt lat="45.79255784368687" lon="13.226026750258841"><ele>1.0</ele><time>2026-05-02T19:24:00Z</time></trkpt><trkpt lat="45.79263467080295" lon="13.226050940917077"><ele>1.0</ele><time>2026-05-02T19:24:02Z</time></trkpt></trkseg></trk></gpx>